Time,TemperatureF,DewpointF,PressureIn,WindDirection,WindDirectionDegrees,WindSpeedMPH,WindSpeedGustMPH,Humidity,HourlyPrecipIn,Conditions,Clouds,dailyrainin,SoftwareType,DateUTC
2013-11-21 00:01:00,41.6,36.2,30.47,NE,46,0.0,0.0,81,0.00,CLR,,0.00,WeatherDisplay:10.37,2013-11-21 05:01:00,
2013-11-21 00:02:00,41.5,36.1,30.47,NE,46,1.2,0.0,81,0.00,CLR,,0.00,WeatherDisplay:10.37,2013-11-21 05:02:00,
2013-11-21 00:03:00,41.4,36.0,30.47,NE,45,0.0,0.0,81,0.00,CLR,,0.00,WeatherDisplay:10.37,2013-11-21 05:03:00,
2013-11-21 00:08:00,41.2,35.8,30.47,NE,46,0.0,0.0,81,0.00,CLR,,0.00,WeatherDisplay:10.37,2013-11-21 05:08:00,
2013-11-21 00:13:00,41.0,35.6,30.47,NE,46,0.0,0.0,81,0.00,CLR,,0.00,WeatherDisplay:10.37,2013-11-21 05:13:00,
2013-11-21 00:18:00,40.8,35.4,30.47,NE,46,0.0,0.0,81,0.00,CLR,,0.00,WeatherDisplay:10.37,2013-11-21 05:18:00,
2013-11-21 00:23:00,40.5,35.1,30.47,NE,46,0.0,0.0,81,0.00,CLR,,0.00,WeatherDisplay:10.37,2013-11-21 05:23:00,
2013-11-21 00:28:00,40.3,35.2,30.47,NE,46,0.0,0.0,82,0.00,CLR,,0.00,WeatherDisplay:10.37,2013-11-21 05:28:00,
2013-11-21 00:33:00,40.1,35.0,30.47,NE,46,0.0,0.0,82,0.00,CLR,,0.00,WeatherDisplay:10.37,2013-11-21 05:33:00,
2013-11-21 00:38:00,40.0,34.9,30.47,NE,45,1.2,1.2,82,0.00,CLR,,0.00,WeatherDisplay:10.37,2013-11-21 05:38:00,
2013-11-21 00:43:00,39.8,35.4,30.47,NE,45,0.0,0.0,84,0.00,CLR,,0.00,WeatherDisplay:10.37,2013-11-21 05:43:00,
2013-11-21 00:48:00,39.7,35.3,30.47,NE,46,0.0,0.0,84,0.00,CLR,,0.00,WeatherDisplay:10.37,2013-11-21 05:48:00,
2013-11-21 00:53:00,39.6,35.2,30.47,NE,45,0.0,0.0,84,0.00,CLR,,0.00,WeatherDisplay:10.37,2013-11-21 05:53:00,
2013-11-21 00:57:00,39.5,35.4,30.47,NE,37,2.3,2.3,85,0.00,CLR,,0.00,WeatherDisplay:10.37,2013-11-21 05:57:00,
2013-11-21 01:02:00,39.4,35.3,30.47,NE,38,2.3,2.3,85,0.00,CLR,,0.00,WeatherDisplay:10.37,2013-11-21 06:02:00,
2013-11-21 01:13:00,39.2,35.4,30.47,North,360,3.5,3.5,86,0.00,CLR,,0.00,WeatherDisplay:10.37,2013-11-21 06:13:00,
2013-11-21 01:18:00,39.1,35.3,30.47,North,5,1.2,0.0,86,0.00,CLR,,0.00,WeatherDisplay:10.37,2013-11-21 06:18:00,
2013-11-21 01:23:00,39.0,35.2,30.48,North,360,1.2,0.0,86,0.00,CLR,,0.00,WeatherDisplay:10.37,2013-11-21 06:23:00,
2013-11-21 01:28:00,39.1,35.6,30.48,North,355,1.2,0.0,87,0.00,CLR,,0.00,WeatherDisplay:10.37,2013-11-21 06:28:00,
2013-11-21 01:33:00,39.1,35.6,30.48,North,355,2.3,2.3,87,0.00,CLR,,0.00,WeatherDisplay:10.37,2013-11-21 06:33:00,
2013-11-21 01:38:00,39.1,35.6,30.48,North,355,0.0,0.0,87,0.00,CLR,,0.00,WeatherDisplay:10.37,2013-11-21 06:38:00,
2013-11-21 01:43:00,39.1,35.6,30.48,North,355,0.0,0.0,87,0.00,CLR,,0.00,WeatherDisplay:10.37,2013-11-21 06:43:00,
2013-11-21 01:48:00,39.1,35.8,30.48,North,355,2.3,2.3,88,0.00,CLR,,0.00,WeatherDisplay:10.37,2013-11-21 06:48:00,
2013-11-21 01:53:00,39.1,35.8,30.48,North,355,1.2,1.2,88,0.00,CLR,,0.00,WeatherDisplay:10.37,2013-11-21 06:53:00,
2013-11-21 01:58:00,39.0,35.7,30.49,North,355,2.3,2.3,88,0.00,CLR,,0.00,WeatherDisplay:10.37,2013-11-21 06:58:00,
2013-11-21 02:03:00,39.0,35.7,30.49,North,355,3.5,3.5,88,0.00,CLR,,0.00,WeatherDisplay:10.37,2013-11-21 07:03:00,
2013-11-21 02:08:00,39.1,35.8,30.49,North,355,2.3,2.3,88,0.00,CLR,,0.00,WeatherDisplay:10.37,2013-11-21 07:08:00,
2013-11-21 02:13:00,39.1,35.8,30.48,North,355,2.3,2.3,88,0.00,CLR,,0.00,WeatherDisplay:10.37,2013-11-21 07:13:00,
2013-11-21 02:18:00,39.1,35.8,30.48,North,355,3.5,3.5,88,0.00,CLR,,0.00,WeatherDisplay:10.37,2013-11-21 07:18:00,
2013-11-21 02:23:00,39.1,35.8,30.48,North,355,3.5,3.5,88,0.00,CLR,,0.00,WeatherDisplay:10.37,2013-11-21 07:23:00,
2013-11-21 02:28:00,39.1,36.1,30.48,North,355,1.2,0.0,89,0.00,CLR,,0.00,WeatherDisplay:10.37,2013-11-21 07:28:00,
2013-11-21 02:33:00,39.1,35.8,30.48,North,355,0.0,0.0,88,0.00,CLR,,0.00,WeatherDisplay:10.37,2013-11-21 07:33:00,
2013-11-21 02:38:00,39.0,35.7,30.48,North,355,0.0,0.0,88,0.00,CLR,,0.00,WeatherDisplay:10.37,2013-11-21 07:38:00,
2013-11-21 02:43:00,39.0,35.7,30.48,North,355,2.3,0.0,88,0.00,CLR,,0.00,WeatherDisplay:10.37,2013-11-21 07:43:00,
2013-11-21 02:48:00,38.9,35.6,30.48,North,355,0.0,0.0,88,0.00,CLR,,0.00,WeatherDisplay:10.37,2013-11-21 07:48:00,
2013-11-21 02:53:00,38.9,35.9,30.47,North,355,1.0,1.0,89,0.00,CLR,,0.00,WeatherDisplay:10.37,2013-11-21 07:53:00,
2013-11-21 02:58:00,38.9,35.9,30.47,North,355,2.3,2.3,89,0.00,CLR,,0.00,WeatherDisplay:10.37,2013-11-21 07:58:00,
2013-11-21 03:03:00,39.0,36.0,30.47,North,355,2.3,2.3,89,0.00,CLR,,0.00,WeatherDisplay:10.37,2013-11-21 08:03:00,
2013-11-21 03:08:00,39.0,36.0,30.47,NW,307,2.3,2.3,89,0.00,CLR,,0.00,WeatherDisplay:10.37,2013-11-21 08:08:00,
2013-11-21 03:13:00,39.0,36.0,30.47,NNW,344,3.5,3.5,89,0.00,CLR,,0.00,WeatherDisplay:10.37,2013-11-21 08:13:00,
2013-11-21 03:18:00,39.2,36.2,30.47,NNW,344,3.5,3.5,89,0.00,CLR,,0.00,WeatherDisplay:10.37,2013-11-21 08:18:00,
2013-11-21 03:23:00,39.2,36.2,30.48,NW,323,4.0,4.0,89,0.00,CLR,,0.00,WeatherDisplay:10.37,2013-11-21 08:23:00,
2013-11-21 03:28:00,39.3,36.3,30.48,NNE,13,3.5,3.5,89,0.00,CLR,,0.00,WeatherDisplay:10.37,2013-11-21 08:28:00,
2013-11-21 03:33:00,39.3,36.3,30.47,North,5,3.5,0.0,89,0.00,CLR,,0.00,WeatherDisplay:10.37,2013-11-21 08:33:00,
2013-11-21 03:38:00,39.4,36.4,30.48,NNE,32,6.0,6.0,89,0.00,CLR,,0.00,WeatherDisplay:10.37,2013-11-21 08:38:00,
2013-11-21 03:43:00,39.5,36.5,30.48,NNW,341,3.5,3.5,89,0.00,CLR,,0.00,WeatherDisplay:10.37,2013-11-21 08:43:00,
2013-11-21 03:48:00,39.6,36.6,30.47,North,350,0.0,0.0,89,0.00,CLR,,0.00,WeatherDisplay:10.37,2013-11-21 08:48:00,
2013-11-21 03:53:00,39.7,36.7,30.47,NNW,348,3.5,3.5,89,0.00,CLR,,0.00,WeatherDisplay:10.37,2013-11-21 08:53:00,
2013-11-21 03:58:00,39.8,36.8,30.47,North,355,2.3,2.3,89,0.00,CLR,,0.00,WeatherDisplay:10.37,2013-11-21 08:58:00,
2013-11-21 04:03:00,39.9,36.9,30.48,NW,317,9.0,9.0,89,0.00,CLR,,0.00,WeatherDisplay:10.37,2013-11-21 09:03:00,
2013-11-21 04:09:00,40.0,37.0,30.48,North,355,4.6,4.6,89,0.00,CLR,,0.00,WeatherDisplay:10.37,2013-11-21 09:09:00,
2013-11-21 04:14:00,40.1,36.8,30.48,North,355,3.5,3.5,88,0.00,CLR,,0.00,WeatherDisplay:10.37,2013-11-21 09:14:00,
2013-11-21 04:19:00,40.1,36.8,30.48,North,355,3.5,3.5,88,0.00,CLR,,0.00,WeatherDisplay:10.37,2013-11-21 09:19:00,
2013-11-21 04:24:00,40.2,36.9,30.47,North,355,2.3,2.3,88,0.00,CLR,,0.00,WeatherDisplay:10.37,2013-11-21 09:24:00,
2013-11-21 04:29:00,40.3,37.0,30.47,North,355,2.3,2.3,88,0.00,CLR,,0.00,WeatherDisplay:10.37,2013-11-21 09:29:00,
2013-11-21 04:34:00,40.3,37.0,30.47,North,355,3.5,3.5,88,0.00,CLR,,0.00,WeatherDisplay:10.37,2013-11-21 09:34:00,
2013-11-21 04:39:00,40.4,36.8,30.47,North,355,3.5,3.5,87,0.00,CLR,,0.00,WeatherDisplay:10.37,2013-11-21 09:39:00,
2013-11-21 04:44:00,40.5,36.9,30.47,North,355,0.0,0.0,87,0.00,CLR,,0.00,WeatherDisplay:10.37,2013-11-21 09:44:00,
2013-11-21 04:49:00,40.5,36.9,30.47,North,355,3.5,3.5,87,0.00,CLR,,0.00,WeatherDisplay:10.37,2013-11-21 09:49:00,
2013-11-21 04:54:00,40.4,36.8,30.47,North,355,5.8,5.8,87,0.00,CLR,,0.00,WeatherDisplay:10.37,2013-11-21 09:54:00,
2013-11-21 04:59:00,40.4,36.8,30.47,North,355,3.5,3.5,87,0.00,CLR,,0.00,WeatherDisplay:10.37,2013-11-21 09:59:00,
2013-11-21 05:04:00,40.4,36.8,30.47,North,355,3.5,3.5,87,0.00,CLR,,0.00,WeatherDisplay:10.37,2013-11-21 10:04:00,
2013-11-21 05:09:00,40.4,36.8,30.47,North,355,3.5,3.5,87,0.00,CLR,,0.00,WeatherDisplay:10.37,2013-11-21 10:09:00,
2013-11-21 05:14:00,40.3,36.7,30.47,North,355,3.5,3.5,87,0.00,CLR,,0.00,WeatherDisplay:10.37,2013-11-21 10:14:00,
2013-11-21 05:19:00,40.3,36.7,30.48,North,350,0.0,1.7,87,0.00,CLR,,0.00,WeatherDisplay:10.37,2013-11-21 10:19:00,
2013-11-21 05:24:00,40.2,36.6,30.48,North,350,1.2,0.0,87,0.00,CLR,,0.00,WeatherDisplay:10.37,2013-11-21 10:24:00,
2013-11-21 05:29:00,40.2,36.3,30.48,North,350,0.0,0.1,86,0.00,CLR,,0.00,WeatherDisplay:10.37,2013-11-21 10:29:00,
2013-11-21 05:34:00,40.1,36.2,30.48,North,350,3.5,3.5,86,0.00,CLR,,0.00,WeatherDisplay:10.37,2013-11-21 10:34:00,
2013-11-21 05:39:00,40.0,36.2,30.49,North,350,3.5,3.5,86,0.00,CLR,,0.00,WeatherDisplay:10.37,2013-11-21 10:39:00,
2013-11-21 05:44:00,40.0,36.4,30.49,North,350,0.0,0.0,87,0.00,CLR,,0.00,WeatherDisplay:10.37,2013-11-21 10:44:00,
2013-11-21 05:49:00,39.9,36.3,30.49,North,355,1.2,1.2,87,0.00,CLR,,0.00,WeatherDisplay:10.37,2013-11-21 10:49:00,
2013-11-21 05:54:00,39.9,36.3,30.49,North,355,3.0,3.0,87,0.00,CLR,,0.00,WeatherDisplay:10.37,2013-11-21 10:54:00,
2013-11-21 05:59:00,39.9,36.3,30.49,North,355,3.5,3.5,87,0.00,CLR,,0.00,WeatherDisplay:10.37,2013-11-21 10:59:00,
2013-11-21 06:04:00,40.0,36.4,30.49,North,355,3.5,0.0,87,0.00,CLR,,0.00,WeatherDisplay:10.37,2013-11-21 11:04:00,
2013-11-21 06:09:00,40.1,36.5,30.49,North,355,3.5,3.5,87,0.00,CLR,,0.00,WeatherDisplay:10.37,2013-11-21 11:09:00,
2013-11-21 06:14:00,40.1,36.8,30.50,North,355,3.5,3.5,88,0.00,CLR,,0.00,WeatherDisplay:10.37,2013-11-21 11:14:00,
2013-11-21 06:19:00,40.2,36.9,30.50,North,355,2.3,2.3,88,0.00,CLR,,0.00,WeatherDisplay:10.37,2013-11-21 11:19:00,
2013-11-21 06:24:00,40.2,36.9,30.49,North,355,3.5,3.5,88,0.00,CLR,,0.00,WeatherDisplay:10.37,2013-11-21 11:24:00,
2013-11-21 06:29:00,40.3,37.0,30.49,North,355,2.3,2.3,88,0.00,CLR,,0.00,WeatherDisplay:10.37,2013-11-21 11:29:00,
2013-11-21 06:34:00,40.3,36.7,30.49,North,355,3.5,3.5,87,0.00,CLR,,0.00,WeatherDisplay:10.37,2013-11-21 11:34:00,
2013-11-21 06:39:00,40.3,36.7,30.49,North,355,3.5,0.0,87,0.00,CLR,,0.00,WeatherDisplay:10.37,2013-11-21 11:39:00,
2013-11-21 06:44:00,40.4,36.8,30.49,North,355,2.3,0.0,87,0.00,CLR,,0.00,WeatherDisplay:10.37,2013-11-21 11:44:00,
2013-11-21 06:49:00,40.3,36.7,30.49,North,355,1.2,1.2,87,0.00,CLR,,0.00,WeatherDisplay:10.37,2013-11-21 11:49:00,
2013-11-21 06:54:00,40.3,36.7,30.49,North,355,0.0,0.2,87,0.00,CLR,,0.00,WeatherDisplay:10.37,2013-11-21 11:54:00,
2013-11-21 06:59:00,40.4,36.8,30.49,North,355,2.3,0.0,87,0.00,CLR,,0.00,WeatherDisplay:10.37,2013-11-21 11:59:00,
2013-11-21 07:04:00,40.5,36.9,30.49,North,355,3.5,3.5,87,0.00,CLR,,0.00,WeatherDisplay:10.37,2013-11-21 12:04:00,
2013-11-21 07:09:00,40.5,36.9,30.49,North,355,3.5,3.5,87,0.00,CLR,,0.00,WeatherDisplay:10.37,2013-11-21 12:09:00,
2013-11-21 07:14:00,40.6,37.0,30.49,North,355,3.5,3.5,87,0.00,CLR,,0.00,WeatherDisplay:10.37,2013-11-21 12:14:00,
2013-11-21 07:19:00,40.7,37.1,30.50,North,355,4.6,4.6,87,0.00,CLR,,0.00,WeatherDisplay:10.37,2013-11-21 12:19:00,
2013-11-21 07:24:00,40.7,37.4,30.50,North,355,2.3,0.0,88,0.00,CLR,,0.00,WeatherDisplay:10.37,2013-11-21 12:24:00,
2013-11-21 07:29:00,40.8,37.5,30.50,North,355,2.3,2.3,88,0.00,CLR,,0.00,WeatherDisplay:10.37,2013-11-21 12:29:00,
2013-11-21 07:34:00,40.9,37.6,30.50,North,355,3.5,0.0,88,0.00,CLR,,0.00,WeatherDisplay:10.37,2013-11-21 12:34:00,
2013-11-21 07:39:00,41.0,37.7,30.50,North,355,2.3,2.3,88,0.00,CLR,,0.00,WeatherDisplay:10.37,2013-11-21 12:39:00,
2013-11-21 07:44:00,41.1,37.8,30.50,North,355,1.2,0.0,88,0.00,CLR,,0.00,WeatherDisplay:10.37,2013-11-21 12:44:00,
2013-11-21 07:49:00,41.2,37.9,30.51,North,355,3.5,0.0,88,0.00,CLR,,0.00,WeatherDisplay:10.37,2013-11-21 12:49:00,
2013-11-21 07:54:00,41.4,38.1,30.51,North,355,3.5,3.5,88,0.00,CLR,,0.00,WeatherDisplay:10.37,2013-11-21 12:54:00,
2013-11-21 07:59:00,41.5,38.2,30.51,North,355,3.5,3.5,88,0.00,CLR,,0.00,WeatherDisplay:10.37,2013-11-21 12:59:00,
2013-11-21 08:04:00,41.7,38.4,30.51,North,355,2.3,2.3,88,0.00,CLR,,0.00,WeatherDisplay:10.37,2013-11-21 13:04:00,
2013-11-21 08:09:00,41.9,38.6,30.51,North,355,1.2,1.2,88,0.00,CLR,,0.00,WeatherDisplay:10.37,2013-11-21 13:09:00,
2013-11-21 08:14:00,42.1,38.8,30.51,North,355,0.0,0.0,88,0.00,CLR,,0.00,WeatherDisplay:10.37,2013-11-21 13:14:00,
2013-11-21 08:19:00,42.3,39.0,30.51,North,355,0.0,0.0,88,0.00,CLR,,0.00,WeatherDisplay:10.37,2013-11-21 13:19:00,
2013-11-21 08:24:00,42.6,39.0,30.51,North,355,1.2,1.2,87,0.00,CLR,,0.00,WeatherDisplay:10.37,2013-11-21 13:24:00,
2013-11-21 08:29:00,42.8,39.2,30.51,North,355,6.9,6.9,87,0.00,CLR,,0.00,WeatherDisplay:10.37,2013-11-21 13:29:00,
2013-11-21 08:34:00,42.9,39.3,30.51,North,355,2.3,2.3,87,0.00,CLR,,0.00,WeatherDisplay:10.37,2013-11-21 13:34:00,
2013-11-21 08:39:00,43.1,39.5,30.51,North,355,5.8,5.8,87,0.00,CLR,,0.00,WeatherDisplay:10.37,2013-11-21 13:39:00,
2013-11-21 08:44:00,43.2,39.3,30.51,North,355,3.5,3.5,86,0.00,CLR,,0.00,WeatherDisplay:10.37,2013-11-21 13:44:00,
2013-11-21 08:49:00,43.3,39.4,30.51,North,351,3.5,3.5,86,0.00,CLR,,0.00,WeatherDisplay:10.37,2013-11-21 13:49:00,
2013-11-21 08:54:00,43.4,39.2,30.51,North,351,0.0,0.0,85,0.00,CLR,,0.00,WeatherDisplay:10.37,2013-11-21 13:54:00,
2013-11-21 08:59:00,43.6,39.4,30.51,North,351,3.5,3.5,85,0.00,CLR,,0.00,WeatherDisplay:10.37,2013-11-21 13:59:00,
2013-11-21 09:04:00,43.7,39.5,30.51,North,350,1.2,0.0,85,0.00,CLR,,0.00,WeatherDisplay:10.37,2013-11-21 14:04:00,
2013-11-21 09:09:00,43.9,39.7,30.51,North,351,0.0,0.0,85,0.00,CLR,,0.00,WeatherDisplay:10.37,2013-11-21 14:09:00,
2013-11-21 09:14:00,44.1,39.9,30.51,North,350,4.6,4.6,85,0.00,CLR,,0.00,WeatherDisplay:10.37,2013-11-21 14:14:00,
2013-11-21 09:19:00,44.3,40.1,30.51,North,351,3.5,3.5,85,0.00,CLR,,0.00,WeatherDisplay:10.37,2013-11-21 14:19:00,
2013-11-21 09:24:00,44.6,40.4,30.51,North,351,0.0,0.0,85,0.00,CLR,,0.00,WeatherDisplay:10.37,2013-11-21 14:24:00,
2013-11-21 09:29:00,44.9,40.4,30.51,North,350,1.2,1.2,84,0.00,CLR,,0.00,WeatherDisplay:10.37,2013-11-21 14:29:00,
2013-11-21 09:34:00,45.1,40.6,30.51,North,351,3.5,3.5,84,0.00,CLR,,0.00,WeatherDisplay:10.37,2013-11-21 14:34:00,
2013-11-21 09:39:00,45.4,40.8,30.52,North,351,3.5,3.5,84,0.00,CLR,,0.00,WeatherDisplay:10.37,2013-11-21 14:39:00,
2013-11-21 09:44:00,45.7,40.5,30.52,North,350,0.0,0.0,82,0.00,CLR,,0.00,WeatherDisplay:10.37,2013-11-21 14:44:00,
2013-11-21 09:49:00,46.0,40.8,30.52,North,350,4.6,4.6,82,0.00,CLR,,0.00,WeatherDisplay:10.37,2013-11-21 14:49:00,
2013-11-21 09:54:00,46.3,41.1,30.52,North,350,0.0,0.1,82,0.00,CLR,,0.00,WeatherDisplay:10.37,2013-11-21 14:54:00,
2013-11-21 09:59:00,46.7,41.5,30.52,North,349,0.0,0.0,82,0.00,CLR,,0.00,WeatherDisplay:10.37,2013-11-21 14:59:00,
2013-11-21 10:04:00,47.1,41.6,30.51,North,350,1.2,1.2,81,0.00,CLR,,0.00,WeatherDisplay:10.37,2013-11-21 15:04:00,
2013-11-21 10:09:00,47.7,41.8,30.51,North,349,1.2,0.0,80,0.00,CLR,,0.00,WeatherDisplay:10.37,2013-11-21 15:09:00,
2013-11-21 10:14:00,48.3,42.1,30.51,East,84,5.0,5.0,79,0.00,CLR,,0.00,WeatherDisplay:10.37,2013-11-21 15:14:00,
2013-11-21 10:19:00,48.7,42.1,30.51,East,84,0.0,0.0,78,0.00,CLR,,0.00,WeatherDisplay:10.37,2013-11-21 15:19:00,
2013-11-21 10:24:00,49.3,42.7,30.51,ENE,64,3.5,3.5,78,0.00,CLR,,0.00,WeatherDisplay:10.37,2013-11-21 15:24:00,
2013-11-21 10:29:00,49.9,43.0,30.51,NNW,347,1.2,1.2,77,0.00,CLR,,0.00,WeatherDisplay:10.37,2013-11-21 15:29:00,
2013-11-21 10:34:00,50.4,43.1,30.50,NNE,25,3.5,3.5,76,0.00,CLR,,0.00,WeatherDisplay:10.37,2013-11-21 15:34:00,
2013-11-21 10:39:00,50.8,43.2,30.50,NNE,24,2.3,2.3,75,0.00,CLR,,0.00,WeatherDisplay:10.37,2013-11-21 15:39:00,
2013-11-21 10:44:00,51.2,42.8,30.50,NNE,26,3.5,3.5,73,0.00,CLR,,0.00,WeatherDisplay:10.37,2013-11-21 15:44:00,
2013-11-21 10:49:00,51.6,43.2,30.49,NNW,333,3.5,3.5,73,0.00,CLR,,0.00,WeatherDisplay:10.37,2013-11-21 15:49:00,
2013-11-21 10:54:00,52.1,43.3,30.50,NNW,342,3.5,3.5,72,0.00,CLR,,0.00,WeatherDisplay:10.37,2013-11-21 15:54:00,
2013-11-21 10:59:00,52.5,43.4,30.50,NNW,342,0.0,0.0,71,0.00,CLR,,0.00,WeatherDisplay:10.37,2013-11-21 15:59:00,
2013-11-21 11:04:00,52.8,43.3,30.50,North,350,3.5,3.5,70,0.00,CLR,,0.00,WeatherDisplay:10.37,2013-11-21 16:04:00,
2013-11-21 11:09:00,53.2,44.0,30.50,WNW,287,1.2,1.2,71,0.00,CLR,,0.00,WeatherDisplay:10.37,2013-11-21 16:09:00,
2013-11-21 11:14:00,53.7,44.1,30.50,WNW,296,2.3,2.3,70,0.00,CLR,,0.00,WeatherDisplay:10.37,2013-11-21 16:14:00,
2013-11-21 11:19:00,54.3,44.7,30.50,WNW,300,1.2,0.0,70,0.00,CLR,,0.00,WeatherDisplay:10.37,2013-11-21 16:19:00,
2013-11-21 11:24:00,55.1,45.1,30.49,NW,304,3.5,3.5,69,0.00,CLR,,0.00,WeatherDisplay:10.37,2013-11-21 16:24:00,
2013-11-21 11:29:00,55.8,45.0,30.49,NW,323,4.6,4.6,67,0.00,CLR,,0.00,WeatherDisplay:10.37,2013-11-21 16:29:00,
2013-11-21 11:34:00,56.2,45.0,30.48,NNW,331,3.5,3.5,66,0.00,CLR,,0.00,WeatherDisplay:10.37,2013-11-21 16:34:00,
2013-11-21 11:39:00,56.2,45.0,30.48,North,355,1.2,1.2,66,0.00,CLR,,0.00,WeatherDisplay:10.37,2013-11-21 16:39:00,
2013-11-21 11:44:00,57.2,45.9,30.47,North,355,3.5,3.5,66,0.00,CLR,,0.00,WeatherDisplay:10.37,2013-11-21 16:44:00,
2013-11-21 11:49:00,57.6,45.9,30.47,North,355,1.2,1.2,65,0.00,CLR,,0.00,WeatherDisplay:10.37,2013-11-21 16:49:00,
2013-11-21 11:54:00,58.0,45.9,30.47,North,355,3.5,3.5,64,0.00,CLR,,0.00,WeatherDisplay:10.37,2013-11-21 16:54:00,
2013-11-21 11:59:00,57.9,45.0,30.47,North,355,2.3,2.3,62,0.00,CLR,,0.00,WeatherDisplay:10.37,2013-11-21 16:59:00,
2013-11-21 12:04:00,57.6,44.7,30.47,North,355,3.5,3.5,62,0.00,CLR,,0.00,WeatherDisplay:10.37,2013-11-21 17:04:00,
2013-11-21 12:09:00,57.4,44.9,30.48,North,355,1.2,0.0,63,0.00,CLR,,0.00,WeatherDisplay:10.37,2013-11-21 17:09:00,
2013-11-21 12:14:00,57.3,44.8,30.47,North,355,2.3,2.3,63,0.00,CLR,,0.00,WeatherDisplay:10.37,2013-11-21 17:14:00,
2013-11-21 12:19:00,57.3,44.8,30.47,North,355,4.6,4.6,63,0.00,CLR,,0.00,WeatherDisplay:10.37,2013-11-21 17:19:00,
2013-11-21 12:24:00,57.2,44.7,30.47,North,355,2.3,2.3,63,0.00,CLR,,0.00,WeatherDisplay:10.37,2013-11-21 17:24:00,
2013-11-21 12:29:00,57.2,45.1,30.46,North,355,3.5,3.5,64,0.00,CLR,,0.00,WeatherDisplay:10.37,2013-11-21 17:29:00,
2013-11-21 12:34:00,57.4,45.7,30.46,North,355,3.5,3.5,65,0.00,CLR,,0.00,WeatherDisplay:10.37,2013-11-21 17:34:00,
2013-11-21 12:39:00,57.7,46.0,30.46,North,355,0.0,0.1,65,0.00,CLR,,0.00,WeatherDisplay:10.37,2013-11-21 17:39:00,
2013-11-21 12:44:00,57.8,45.7,30.45,NNE,18,3.5,3.5,64,0.00,CLR,,0.00,WeatherDisplay:10.37,2013-11-21 17:44:00,
2013-11-21 12:49:00,57.8,46.5,30.45,NNE,22,4.6,4.6,66,0.00,CLR,,0.00,WeatherDisplay:10.37,2013-11-21 17:49:00,
2013-11-21 12:54:00,57.9,46.2,30.44,NE,42,3.5,3.5,65,0.00,CLR,,0.00,WeatherDisplay:10.37,2013-11-21 17:54:00,
2013-11-21 12:59:00,58.0,46.3,30.44,ENE,60,1.2,1.2,65,0.00,CLR,,0.00,WeatherDisplay:10.37,2013-11-21 17:59:00,
2013-11-21 13:04:00,58.3,47.0,30.44,ENE,60,1.2,1.2,66,0.00,CLR,,0.00,WeatherDisplay:10.37,2013-11-21 18:04:00,
2013-11-21 13:09:00,58.5,46.4,30.44,ENE,60,2.3,2.3,64,0.00,CLR,,0.00,WeatherDisplay:10.37,2013-11-21 18:09:00,
2013-11-21 13:14:00,58.4,46.3,30.44,ENE,60,2.3,2.3,64,0.00,CLR,,0.00,WeatherDisplay:10.37,2013-11-21 18:14:00,
2013-11-21 13:19:00,58.5,47.2,30.44,ENE,60,3.5,3.5,66,0.00,CLR,,0.00,WeatherDisplay:10.37,2013-11-21 18:19:00,
2013-11-21 13:24:00,58.8,47.1,30.44,ENE,60,3.5,3.5,65,0.00,CLR,,0.00,WeatherDisplay:10.37,2013-11-21 18:24:00,
2013-11-21 13:29:00,59.0,47.2,30.44,ENE,60,3.5,3.5,65,0.00,CLR,,0.00,WeatherDisplay:10.37,2013-11-21 18:29:00,
2013-11-21 13:34:00,59.1,47.7,30.43,ENE,60,0.0,0.0,66,0.00,CLR,,0.00,WeatherDisplay:10.37,2013-11-21 18:34:00,
2013-11-21 13:39:00,59.4,47.6,30.43,ENE,61,0.0,0.0,65,0.00,CLR,,0.00,WeatherDisplay:10.37,2013-11-21 18:39:00,
2013-11-21 13:44:00,59.7,47.5,30.43,ENE,60,2.3,2.3,64,0.00,CLR,,0.00,WeatherDisplay:10.37,2013-11-21 18:44:00,
2013-11-21 13:49:00,60.1,47.9,30.43,ENE,61,0.0,0.0,64,0.00,CLR,,0.00,WeatherDisplay:10.37,2013-11-21 18:49:00,
2013-11-21 13:54:00,60.2,47.6,30.43,ENE,61,3.5,3.5,63,0.00,CLR,,0.00,WeatherDisplay:10.37,2013-11-21 18:54:00,
2013-11-21 13:59:00,60.2,47.6,30.42,ENE,61,0.0,0.0,63,0.00,CLR,,0.00,WeatherDisplay:10.37,2013-11-21 18:59:00,
2013-11-21 14:04:00,60.4,47.7,30.42,ENE,60,1.2,1.2,63,0.00,CLR,,0.00,WeatherDisplay:10.37,2013-11-21 19:04:00,
2013-11-21 14:09:00,60.5,48.3,30.42,ENE,60,2.3,2.3,64,0.00,CLR,,0.00,WeatherDisplay:10.37,2013-11-21 19:09:00,
2013-11-21 14:14:00,60.7,48.4,30.42,East,84,2.3,2.3,64,0.00,CLR,,0.00,WeatherDisplay:10.37,2013-11-21 19:14:00,
2013-11-21 14:19:00,60.8,48.1,30.41,East,84,0.0,0.2,63,0.00,CLR,,0.00,WeatherDisplay:10.37,2013-11-21 19:19:00,
2013-11-21 14:24:00,61.0,48.3,30.41,East,84,0.0,0.0,63,0.00,CLR,,0.00,WeatherDisplay:10.37,2013-11-21 19:24:00,
2013-11-21 14:29:00,61.1,48.4,30.42,East,82,3.5,3.5,63,0.00,CLR,,0.00,WeatherDisplay:10.37,2013-11-21 19:29:00,
2013-11-21 14:34:00,61.0,48.3,30.41,East,82,2.3,2.3,63,0.00,CLR,,0.00,WeatherDisplay:10.37,2013-11-21 19:34:00,
2013-11-21 14:39:00,60.9,48.6,30.41,East,82,0.0,0.0,64,0.00,CLR,,0.00,WeatherDisplay:10.37,2013-11-21 19:39:00,
2013-11-21 14:44:00,61.0,48.7,30.42,East,82,0.0,0.0,64,0.00,CLR,,0.00,WeatherDisplay:10.37,2013-11-21 19:44:00,
2013-11-21 14:49:00,61.0,48.3,30.41,East,82,0.0,0.1,63,0.00,CLR,,0.00,WeatherDisplay:10.37,2013-11-21 19:49:00,
2013-11-21 14:54:00,60.9,48.2,30.41,East,82,3.5,3.5,63,0.00,CLR,,0.00,WeatherDisplay:10.37,2013-11-21 19:54:00,
2013-11-21 14:59:00,60.7,48.4,30.41,East,82,1.2,1.2,64,0.00,CLR,,0.00,WeatherDisplay:10.37,2013-11-21 19:59:00,
2013-11-21 15:04:00,60.5,48.3,30.41,East,82,0.0,0.0,64,0.00,CLR,,0.00,WeatherDisplay:10.37,2013-11-21 20:04:00,
2013-11-21 15:09:00,60.5,48.3,30.41,East,82,0.0,0.0,64,0.00,CLR,,0.00,WeatherDisplay:10.37,2013-11-21 20:09:00,
2013-11-21 15:14:00,60.4,48.2,30.42,East,82,0.0,0.0,64,0.00,CLR,,0.00,WeatherDisplay:10.37,2013-11-21 20:14:00,
2013-11-21 15:19:00,60.3,48.9,30.41,East,82,0.0,0.0,66,0.00,CLR,,0.00,WeatherDisplay:10.37,2013-11-21 20:19:00,
2013-11-21 15:24:00,60.2,48.8,30.41,East,82,0.0,0.0,66,0.00,CLR,,0.00,WeatherDisplay:10.37,2013-11-21 20:24:00,
2013-11-21 15:29:00,60.2,49.2,30.41,East,82,0.0,0.0,67,0.00,CLR,,0.00,WeatherDisplay:10.37,2013-11-21 20:29:00,
2013-11-21 15:34:00,60.2,49.2,30.41,East,82,0.0,0.0,67,0.00,CLR,,0.00,WeatherDisplay:10.37,2013-11-21 20:34:00,
2013-11-21 15:39:00,60.1,49.9,30.41,East,82,0.0,0.0,69,0.00,CLR,,0.00,WeatherDisplay:10.37,2013-11-21 20:39:00,
2013-11-21 15:44:00,60.1,49.9,30.41,East,82,0.0,0.0,69,0.00,CLR,,0.00,WeatherDisplay:10.37,2013-11-21 20:44:00,
2013-11-21 15:49:00,60.0,50.9,30.41,East,82,0.0,0.0,72,0.00,CLR,,0.00,WeatherDisplay:10.37,2013-11-21 20:49:00,
2013-11-21 15:54:00,59.9,49.7,30.41,East,82,0.0,0.0,69,0.00,CLR,,0.00,WeatherDisplay:10.37,2013-11-21 20:54:00,
2013-11-21 15:59:00,59.7,49.5,30.41,East,82,0.0,0.0,69,0.00,CLR,,0.00,WeatherDisplay:10.37,2013-11-21 20:59:00,
2013-11-21 16:04:00,59.5,49.3,30.41,East,82,0.0,0.0,69,0.00,CLR,,0.00,WeatherDisplay:10.37,2013-11-21 21:04:00,
2013-11-21 16:09:00,59.4,49.2,30.41,East,82,0.0,0.0,69,0.00,CLR,,0.00,WeatherDisplay:10.37,2013-11-21 21:09:00,
2013-11-21 16:14:00,59.3,49.5,30.41,East,82,0.0,0.0,70,0.00,CLR,,0.00,WeatherDisplay:10.37,2013-11-21 21:14:00,
2013-11-21 16:19:00,59.2,49.4,30.41,East,82,0.0,0.0,70,0.00,CLR,,0.00,WeatherDisplay:10.37,2013-11-21 21:19:00,
2013-11-21 16:24:00,59.1,49.3,30.41,East,82,0.0,0.0,70,0.00,CLR,,0.00,WeatherDisplay:10.37,2013-11-21 21:24:00,
2013-11-21 16:29:00,59.1,49.7,30.41,East,82,0.0,0.0,71,0.00,CLR,,0.00,WeatherDisplay:10.37,2013-11-21 21:29:00,
2013-11-21 16:34:00,59.1,49.7,30.42,East,82,0.0,0.0,71,0.00,CLR,,0.00,WeatherDisplay:10.37,2013-11-21 21:34:00,
2013-11-21 16:39:00,59.0,49.6,30.42,East,82,0.0,0.0,71,0.00,CLR,,0.00,WeatherDisplay:10.37,2013-11-21 21:39:00,
2013-11-21 16:44:00,58.8,49.8,30.42,East,82,0.0,0.0,72,0.00,CLR,,0.00,WeatherDisplay:10.37,2013-11-21 21:44:00,
2013-11-21 16:49:00,58.5,49.1,30.42,East,82,0.0,0.0,71,0.00,CLR,,0.00,WeatherDisplay:10.37,2013-11-21 21:49:00,
2013-11-21 16:54:00,58.2,48.8,30.42,East,82,0.0,0.0,71,0.00,CLR,,0.00,WeatherDisplay:10.37,2013-11-21 21:54:00,
2013-11-21 16:59:00,57.8,48.5,30.42,East,82,0.0,0.0,71,0.00,CLR,,0.00,WeatherDisplay:10.37,2013-11-21 21:59:00,
2013-11-21 17:04:00,57.5,48.2,30.42,East,82,0.0,0.0,71,0.00,CLR,,0.00,WeatherDisplay:10.37,2013-11-21 22:04:00,
2013-11-21 17:09:00,57.0,47.7,30.43,East,82,0.0,0.0,71,0.00,CLR,,0.00,WeatherDisplay:10.37,2013-11-21 22:09:00,
2013-11-21 17:14:00,56.4,47.1,30.42,East,82,0.0,0.0,71,0.00,CLR,,0.00,WeatherDisplay:10.37,2013-11-21 22:14:00,
2013-11-21 17:19:00,55.9,47.0,30.43,East,82,0.0,0.0,72,0.00,CLR,,0.00,WeatherDisplay:10.37,2013-11-21 22:19:00,
2013-11-21 17:24:00,55.4,46.5,30.42,East,82,0.0,0.0,72,0.00,CLR,,0.00,WeatherDisplay:10.37,2013-11-21 22:24:00,
2013-11-21 17:29:00,54.9,46.4,30.42,East,82,0.0,0.0,73,0.00,CLR,,0.00,WeatherDisplay:10.37,2013-11-21 22:29:00,
2013-11-21 17:34:00,54.5,46.7,30.43,East,82,0.0,0.0,75,0.00,CLR,,0.00,WeatherDisplay:10.37,2013-11-21 22:34:00,
2013-11-21 17:39:00,54.2,46.4,30.43,East,82,0.0,0.0,75,0.00,CLR,,0.00,WeatherDisplay:10.37,2013-11-21 22:39:00,
2013-11-21 17:44:00,54.1,46.7,30.43,East,82,0.0,0.0,76,0.00,CLR,,0.00,WeatherDisplay:10.37,2013-11-21 22:44:00,
2013-11-21 17:49:00,53.9,46.9,30.42,East,82,1.2,0.0,77,0.00,CLR,,0.00,WeatherDisplay:10.37,2013-11-21 22:49:00,
2013-11-21 17:54:00,53.7,46.7,30.42,East,82,0.0,0.0,77,0.00,CLR,,0.00,WeatherDisplay:10.37,2013-11-21 22:54:00,
2013-11-21 17:59:00,53.6,46.6,30.42,East,82,1.2,0.0,77,0.00,CLR,,0.00,WeatherDisplay:10.37,2013-11-21 22:59:00,
2013-11-21 18:04:00,53.5,46.8,30.42,East,82,0.0,0.0,78,0.00,CLR,,0.00,WeatherDisplay:10.37,2013-11-21 23:04:00,
2013-11-21 18:09:00,53.5,47.1,30.42,East,82,1.2,1.2,79,0.00,CLR,,0.00,WeatherDisplay:10.37,2013-11-21 23:09:00,
2013-11-21 18:14:00,53.4,47.0,30.43,East,82,0.0,0.0,79,0.00,CLR,,0.00,WeatherDisplay:10.37,2013-11-21 23:14:00,
2013-11-21 18:19:00,53.4,47.0,30.42,East,82,0.0,0.0,79,0.00,CLR,,0.00,WeatherDisplay:10.37,2013-11-21 23:19:00,
2013-11-21 18:24:00,53.4,46.7,30.42,East,82,0.0,0.0,78,0.00,CLR,,0.00,WeatherDisplay:10.37,2013-11-21 23:24:00,
2013-11-21 18:29:00,53.3,46.6,30.42,East,82,0.0,0.0,78,0.00,CLR,,0.00,WeatherDisplay:10.37,2013-11-21 23:29:00,
2013-11-21 18:34:00,53.3,46.6,30.42,East,82,0.0,0.0,78,0.00,CLR,,0.00,WeatherDisplay:10.37,2013-11-21 23:34:00,
2013-11-21 18:39:00,53.3,46.6,30.42,East,82,0.0,0.0,78,0.00,CLR,,0.00,WeatherDisplay:10.37,2013-11-21 23:39:00,
2013-11-21 18:44:00,53.3,46.6,30.42,East,82,0.0,0.0,78,0.00,CLR,,0.00,WeatherDisplay:10.37,2013-11-21 23:44:00,
2013-11-21 18:49:00,53.3,46.6,30.42,East,82,0.0,0.0,78,0.00,CLR,,0.00,WeatherDisplay:10.37,2013-11-21 23:49:00,
2013-11-21 18:54:00,53.3,46.6,30.42,East,82,0.0,0.0,78,0.00,CLR,,0.00,WeatherDisplay:10.37,2013-11-21 23:54:00,
2013-11-21 18:59:00,53.2,46.5,30.42,East,82,0.0,0.0,78,0.00,CLR,,0.00,WeatherDisplay:10.37,2013-11-21 23:59:00,
2013-11-21 19:04:00,53.0,46.0,30.41,East,82,0.0,0.0,77,0.00,CLR,,0.00,WeatherDisplay:10.37,2013-11-22 00:04:00,
2013-11-21 19:09:00,52.8,45.8,30.41,East,82,0.0,0.0,77,0.00,CLR,,0.00,WeatherDisplay:10.37,2013-11-22 00:09:00,
2013-11-21 19:14:00,52.6,45.9,30.42,East,82,0.0,0.0,78,0.00,CLR,,0.00,WeatherDisplay:10.37,2013-11-22 00:14:00,
2013-11-21 19:19:00,52.3,45.6,30.42,East,82,0.0,0.0,78,0.00,CLR,,0.00,WeatherDisplay:10.37,2013-11-22 00:19:00,
2013-11-21 19:24:00,51.9,45.3,30.42,East,82,0.0,0.0,78,0.00,CLR,,0.00,WeatherDisplay:10.37,2013-11-22 00:24:00,
2013-11-21 19:29:00,51.6,45.0,30.42,East,82,0.0,0.0,78,0.00,CLR,,0.00,WeatherDisplay:10.37,2013-11-22 00:29:00,
2013-11-21 19:34:00,51.2,44.6,30.42,East,82,0.0,0.0,78,0.00,CLR,,0.00,WeatherDisplay:10.37,2013-11-22 00:34:00,
2013-11-21 19:39:00,50.8,44.2,30.42,East,82,0.0,0.0,78,0.00,CLR,,0.00,WeatherDisplay:10.37,2013-11-22 00:39:00,
2013-11-21 19:44:00,50.4,43.8,30.43,East,82,0.0,0.0,78,0.00,CLR,,0.00,WeatherDisplay:10.37,2013-11-22 00:44:00,
2013-11-21 19:49:00,50.1,43.5,30.43,East,82,0.0,0.0,78,0.00,CLR,,0.00,WeatherDisplay:10.37,2013-11-22 00:49:00,
2013-11-21 19:54:00,49.8,43.9,30.43,East,82,0.0,0.0,80,0.00,CLR,,0.00,WeatherDisplay:10.37,2013-11-22 00:54:00,
2013-11-21 19:59:00,49.5,44.2,30.42,East,82,0.0,0.0,82,0.00,CLR,,0.00,WeatherDisplay:10.37,2013-11-22 00:59:00,
2013-11-21 20:04:00,49.3,44.0,30.43,East,82,0.0,0.0,82,0.00,CLR,,0.00,WeatherDisplay:10.37,2013-11-22 01:04:00,
2013-11-21 20:09:00,49.2,44.6,30.43,East,82,0.0,0.0,84,0.00,CLR,,0.00,WeatherDisplay:10.37,2013-11-22 01:09:00,
2013-11-21 20:14:00,49.1,44.5,30.43,East,82,0.0,0.0,84,0.00,CLR,,0.00,WeatherDisplay:10.37,2013-11-22 01:14:00,
2013-11-21 20:19:00,49.1,44.8,30.43,East,82,0.0,0.0,85,0.00,CLR,,0.00,WeatherDisplay:10.37,2013-11-22 01:19:00,
2013-11-21 20:24:00,49.2,45.2,30.42,East,82,0.0,0.0,86,0.00,CLR,,0.00,WeatherDisplay:10.37,2013-11-22 01:24:00,
2013-11-21 20:29:00,49.3,45.3,30.42,East,82,0.0,0.0,86,0.00,CLR,,0.00,WeatherDisplay:10.37,2013-11-22 01:29:00,
2013-11-21 20:34:00,49.3,45.3,30.42,East,82,0.0,0.0,86,0.00,CLR,,0.00,WeatherDisplay:10.37,2013-11-22 01:34:00,
2013-11-21 20:39:00,49.5,45.8,30.42,East,82,0.0,0.0,87,0.00,CLR,,0.00,WeatherDisplay:10.37,2013-11-22 01:39:00,
2013-11-21 20:44:00,49.7,46.0,30.42,East,82,0.0,0.0,87,0.00,CLR,,0.00,WeatherDisplay:10.37,2013-11-22 01:44:00,
2013-11-21 20:49:00,49.8,46.4,30.42,East,82,0.0,0.0,88,0.00,CLR,,0.00,WeatherDisplay:10.37,2013-11-22 01:49:00,
2013-11-21 20:54:00,50.0,46.6,30.42,East,82,0.0,0.0,88,0.00,CLR,,0.00,WeatherDisplay:10.37,2013-11-22 01:54:00,
2013-11-21 20:59:00,50.0,46.6,30.42,East,82,0.0,0.0,88,0.00,CLR,,0.00,WeatherDisplay:10.37,2013-11-22 01:59:00,
2013-11-21 21:04:00,50.1,46.4,30.42,East,82,0.0,0.0,87,0.00,CLR,,0.00,WeatherDisplay:10.37,2013-11-22 02:04:00,
2013-11-21 21:08:00,50.1,46.4,30.42,East,82,0.0,0.0,87,0.00,CLR,,0.00,WeatherDisplay:10.37,2013-11-22 02:08:00,
2013-11-21 21:09:00,50.1,46.4,30.42,East,82,0.0,0.0,87,0.00,CLR,,0.00,WeatherDisplay:10.37,2013-11-22 02:09:00,
2013-11-21 21:11:00,50.1,46.4,30.42,East,82,0.0,0.0,87,0.00,CLR,,0.00,WeatherDisplay:10.37,2013-11-22 02:11:00,
2013-11-21 21:16:00,50.1,46.4,30.42,East,82,0.0,0.0,87,0.00,CLR,,0.00,WeatherDisplay:10.37,2013-11-22 02:16:00,
2013-11-21 21:21:00,50.1,46.4,30.42,East,82,0.0,0.0,87,0.00,CLR,,0.00,WeatherDisplay:10.37,2013-11-22 02:21:00,
2013-11-21 21:26:00,50.2,46.5,30.42,East,82,0.0,0.0,87,0.00,CLR,,0.00,WeatherDisplay:10.37,2013-11-22 02:26:00,
2013-11-21 21:31:00,50.2,46.5,30.42,East,82,0.0,0.0,87,0.00,CLR,,0.00,WeatherDisplay:10.37,2013-11-22 02:31:00,
2013-11-21 21:36:00,50.2,46.5,30.42,East,82,0.0,0.0,87,0.00,CLR,,0.00,WeatherDisplay:10.37,2013-11-22 02:36:00,
2013-11-21 21:41:00,50.3,46.6,30.42,East,82,0.0,0.0,87,0.00,CLR,,0.00,WeatherDisplay:10.37,2013-11-22 02:41:00,
2013-11-21 21:46:00,50.3,46.6,30.42,East,82,0.0,0.0,87,0.00,CLR,,0.00,WeatherDisplay:10.37,2013-11-22 02:46:00,
2013-11-21 21:51:00,50.4,46.7,30.42,East,82,0.0,0.0,87,0.00,CLR,,0.00,WeatherDisplay:10.37,2013-11-22 02:51:00,
2013-11-21 21:56:00,50.5,46.8,30.42,East,82,0.0,0.0,87,0.00,CLR,,0.00,WeatherDisplay:10.37,2013-11-22 02:56:00,
2013-11-21 22:01:00,50.5,46.8,30.41,East,82,1.2,0.0,87,0.00,CLR,,0.00,WeatherDisplay:10.37,2013-11-22 03:01:00,
2013-11-21 22:06:00,50.6,46.9,30.41,East,82,3.5,3.5,87,0.00,CLR,,0.00,WeatherDisplay:10.37,2013-11-22 03:06:00,
2013-11-21 22:11:00,50.6,46.9,30.41,East,82,0.0,0.0,87,0.00,CLR,,0.00,WeatherDisplay:10.37,2013-11-22 03:11:00,
2013-11-21 22:16:00,50.6,46.9,30.41,East,82,0.0,0.0,87,0.00,CLR,,0.00,WeatherDisplay:10.37,2013-11-22 03:16:00,
2013-11-21 22:21:00,50.6,46.6,30.41,East,82,0.0,0.0,86,0.00,CLR,,0.00,WeatherDisplay:10.37,2013-11-22 03:21:00,
2013-11-21 22:26:00,50.5,46.5,30.41,East,82,0.0,0.0,86,0.00,CLR,,0.00,WeatherDisplay:10.37,2013-11-22 03:26:00,
2013-11-21 22:31:00,50.4,46.4,30.41,East,82,0.0,0.0,86,0.00,CLR,,0.00,WeatherDisplay:10.37,2013-11-22 03:31:00,
2013-11-21 22:36:00,50.2,46.2,30.41,East,82,0.0,0.0,86,0.00,CLR,,0.00,WeatherDisplay:10.37,2013-11-22 03:36:00,
2013-11-21 22:41:00,50.1,46.1,30.41,East,82,0.0,0.0,86,0.00,CLR,,0.00,WeatherDisplay:10.37,2013-11-22 03:41:00,
2013-11-21 22:46:00,50.0,46.0,30.41,East,82,0.0,0.0,86,0.00,CLR,,0.00,WeatherDisplay:10.37,2013-11-22 03:46:00,
2013-11-21 22:51:00,49.9,45.9,30.40,East,82,0.0,0.0,86,0.00,CLR,,0.00,WeatherDisplay:10.37,2013-11-22 03:51:00,
2013-11-21 22:56:00,49.8,45.8,30.41,East,82,0.0,0.0,86,0.00,CLR,,0.00,WeatherDisplay:10.37,2013-11-22 03:56:00,
2013-11-21 23:01:00,49.7,45.7,30.40,East,82,0.0,0.0,86,0.00,CLR,,0.00,WeatherDisplay:10.37,2013-11-22 04:01:00,
2013-11-21 23:06:00,49.6,45.9,30.40,East,82,0.0,0.0,87,0.00,CLR,,0.00,WeatherDisplay:10.37,2013-11-22 04:06:00,
2013-11-21 23:11:00,49.5,45.8,30.40,East,82,0.0,0.0,87,0.00,CLR,,0.00,WeatherDisplay:10.37,2013-11-22 04:11:00,
2013-11-21 23:16:00,49.4,45.7,30.40,East,82,0.0,0.0,87,0.00,CLR,,0.00,WeatherDisplay:10.37,2013-11-22 04:16:00,
2013-11-21 23:21:00,49.3,45.6,30.40,East,82,0.0,0.0,87,0.00,CLR,,0.00,WeatherDisplay:10.37,2013-11-22 04:21:00,
2013-11-21 23:26:00,49.2,45.5,30.39,East,82,0.0,0.0,87,0.00,CLR,,0.00,WeatherDisplay:10.37,2013-11-22 04:26:00,
2013-11-21 23:31:00,49.1,45.4,30.40,East,82,0.0,0.0,87,0.00,CLR,,0.00,WeatherDisplay:10.37,2013-11-22 04:31:00,
2013-11-21 23:36:00,49.0,45.3,30.40,East,82,0.0,0.0,87,0.00,CLR,,0.00,WeatherDisplay:10.37,2013-11-22 04:36:00,
2013-11-21 23:41:00,48.9,45.2,30.40,East,82,0.0,0.0,87,0.00,CLR,,0.00,WeatherDisplay:10.37,2013-11-22 04:41:00,
2013-11-21 23:46:00,48.7,45.0,30.40,East,82,0.0,0.0,87,0.00,CLR,,0.00,WeatherDisplay:10.37,2013-11-22 04:46:00,
2013-11-21 23:51:00,48.5,44.8,30.40,East,82,0.0,0.0,87,0.00,CLR,,0.00,WeatherDisplay:10.37,2013-11-22 04:51:00,
2013-11-21 23:56:00,48.3,44.6,30.40,East,82,0.0,0.0,87,0.00,CLR,,0.00,WeatherDisplay:10.37,2013-11-22 04:56:00,